Station: Warwick  

  Atmospheric Gas Attenuation - ITU Rec 676-11   ----------------- dB/100km -----------------
Date Time Temp RH % AH g/m3 Dew Point Wind Direction Speed kph Gust kph Barometer mB Rainfall Since 9am 24GHz 47GHz 76GHz 122GHz 134GHz 241GHz
08/05 12:30 18.6 25 3.98 -1.8 9 15 1018.6 0 9.7 18.3 21.8 56.2 40.3 135.2
08/05 12:20 17.6 25 3.75 -2.6 7 9 1019 0 9.2 18.2 21.3 55.0 38.4 128.4
08/05 12:10 18.3 25 3.91 -2 13 15 1019.2 0 9.5 18.3 21.7 55.9 39.8 133.1
08/05 12:00 18.4 26 4.09 -1.4 11 19 1019.2 0 9.9 18.5 22.2 57.3 41.6 139.6
08/05 11:50 17.6 25 3.75 -2.6 7 11 1019.5 0 9.2 18.2 21.3 55.0 38.5 128.4
08/05 11:40 17.3 25 3.68 -2.9 9 15 1019.5 0 9.1 18.2 21.2 54.6 37.9 126.3
08/05 11:30 17 25 3.62 -3.1 6 13 1019.7 0 9.0 18.2 21.1 54.4 37.4 124.6
08/05 11:20 16.7 25 3.55 -3.4 9 11 1019.7 0 8.8 18.1 20.9 54.0 36.8 122.4
08/05 11:10 16.1 24 3.29 -4.4 9 11 1020.1 0 8.3 17.9 20.3 52.2 34.4 113.8
08/05 11:00 16.1 26 3.56 -3.4 7 15 1020.3 0 8.9 18.3 21.1 54.5 37.2 123.8
08/05 10:50 15.4 28 3.68 -3 6 7 1020.5 0 9.1 18.6 21.7 56.0 38.8 129.3
08/05 10:40 15.1 29 3.74 -2.8 9 11 1020.4 0 9.3 18.7 22.0 56.7 39.6 132.0
08/05 10:30 14.6 30 3.75 -2.8 6 13 1020.7 0 9.3 18.8 22.1 57.2 39.9 133.2
08/05 10:20 14.3 32 3.93 -2.2 7 9 1020.8 0 9.7 19.1 22.8 59.0 42.1 140.7
08/05 10:10 13.8 31 3.69 -3 11 13 1021 0 9.2 18.9 22.2 57.2 39.7 132.3
08/05 10:00 14 31 3.74 -2.8 6 11 1021 0 9.3 18.9 22.3 57.5 40.1 133.9
08/05 09:50 13.1 34 3.88 -2.4 9 11 1021.1 0 9.6 19.3 23.0 59.4 42.1 140.8
08/05 09:40 12.1 33 3.54 -3.7 11 13 1021.2 0 8.9 19.1 22.1 57.1 38.9 129.2
08/05 09:30 12.1 39 4.18 -1.4 9 17 1021.2 0 10.3 19.9 24.3 62.9 46.1 154.5
08/05 09:20 11.4 40 4.11 -1.7 9 11 1021.2 0 10.1 20.0 24.3 62.8 45.7 153.0
08/05 09:10 10.8 41 4.05 -1.9 11 13 1021 0 10.0 20.0 24.2 62.7 45.3 151.6
08/05 09:00 10.7 40 3.93 -2.3 9 13 1021.1 0 9.8 19.9 23.8 61.6 44.0 147.0
08/05 08:50 10.4 39 3.76 -2.9 7 9 1021.2 0 9.4 19.7 23.3 60.3 42.2 140.7
08/05 08:40 10.3 39 3.74 -3 0 0 1021.1 0 9.4 19.7 23.3 60.2 42.0 140.0
08/05 08:30 10.3 41 3.93 -2.4 6 11 1021.1 0 9.8 20.0 24.0 61.9 44.2 147.7
08/05 08:20 9.8 42 3.9 -2.5 4 7 1021.1 0 9.7 20.0 24.0 62.0 44.1 147.4
08/05 08:10 8.9 50 4.38 -0.9 0 0 1020.9 0 10.8 20.9 26.0 67.3 50.3 169.0
08/05 08:00 7.8 60 4.9 0.5 0 0 1020.9 0 11.9 22.0 28.3 73.4 57.4 193.7
08/05 07:50 6.2 68 5 0.7 0 0 1020.9 0 12.2 22.5 29.2 75.9 59.8 202.1
08/05 07:40 5 68 4.62 -0.4 0 0 1021.1 0 11.4 22.2 28.2 73.2 55.9 188.1
08/05 07:30 4.3 74 4.8 0.1 0 0 1020.9 0 11.8 22.7 29.1 75.7 58.7 197.9
08/05 07:20 3.8 78 4.9 0.3 0 0 1020.7 0 12.1 22.9 29.7 77.2 60.4 203.7
08/05 07:10 2.3 75 4.26 -1.7 0 0 1020.7 0 10.7 22.3 27.7 71.9 53.1 177.9
08/05 07:00 2.2 76 4.29 -1.6 0 0 1020.5 0 10.8 22.4 27.8 72.2 53.6 179.5
08/05 06:50 1.2 78 4.11 -2.2 0 0 1020.7 0 10.4 22.3 27.5 71.3 51.9 173.5
08/05 06:40 1.2 72 3.79 -3.3 0 0 1020.5 0 9.8 21.8 26.2 67.9 47.7 158.9
08/05 06:30 0.7 79 4.02 -2.5 6 9 1020.3 0 10.3 22.3 27.3 70.7 51.0 170.4
08/05 06:20 0.4 77 3.84 -3.1 0 0 1020.2 0 9.9 22.1 26.7 69.1 48.9 162.7
08/05 06:10 1.6 72 3.9 -2.9 0 0 1020.1 0 10.0 21.9 26.5 68.7 48.9 163.0
08/05 06:00 1.7 70 3.82 -3.2 2 7 1019.8 0 9.8 21.7 26.1 67.7 47.8 159.1
08/05 05:50 2.3 68 3.86 -3 0 0 1019.6 0 9.9 21.6 26.1 67.6 47.9 159.7
08/05 05:40 2.5 70 4.03 -2.4 0 0 1019.6 0 10.2 21.8 26.7 69.2 50.0 166.9
08/05 05:30 2.3 77 4.37 -1.3 0 0 1019.6 0 11.0 22.4 28.1 72.9 54.5 182.8
08/05 05:20 2.5 77 4.43 -1.1 0 0 1019.4 0 11.1 22.5 28.2 73.4 55.1 185.0
08/05 05:10 3.3 65 3.95 -2.6 0 0 1019.4 0 10.0 21.5 26.1 67.7 48.4 161.7
08/05 05:00 2.8 67 3.93 -2.7 7 9 1019.3 0 10.0 21.6 26.2 67.9 48.5 161.8
08/05 04:50 3.7 66 4.12 -2 7 7 1019.2 0 10.4 21.7 26.6 69.0 50.3 168.4
08/05 04:40 3 70 4.17 -1.9 7 7 1019.1 0 10.5 21.9 27.0 70.2 51.4 172.1
08/05 04:30 3.9 65 4.11 -2.1 2 7 1019.1 0 10.4 21.6 26.5 68.7 50.1 167.5
08/05 04:20 5.9 58 4.18 -1.7 6 6 1019.1 0 10.4 21.3 26.1 67.7 49.7 166.4
08/05 04:10 6 62 4.5 -0.7 4 7 1019 0 11.1 21.7 27.3 70.9 53.6 180.1
08/05 04:00 6 56 4.07 -2.1 7 11 1018.9 0 10.2 21.1 25.7 66.5 48.2 161.4
08/05 03:50 6 58 4.21 -1.6 6 7 1019 0 10.5 21.3 26.2 67.9 50.0 167.5
08/05 03:40 5.8 60 4.3 -1.3 6 7 1019.1 0 10.7 21.5 26.6 69.0 51.2 171.8
08/05 03:30 5.6 60 4.24 -1.5 7 11 1019.1 0 10.6 21.4 26.4 68.6 50.6 169.6
08/05 03:20 6.4 60 4.47 -0.8 7 11 1019.1 0 11.1 21.6 27.0 70.2 52.9 177.9
08/05 03:10 6.2 59 4.34 -1.2 13 13 1019 0 10.8 21.4 26.6 69.1 51.4 172.7
08/05 03:00 6.2 61 4.49 -0.7 9 15 1019 0 11.1 21.6 27.2 70.6 53.3 179.2
08/05 02:50 6.1 62 4.53 -0.6 9 13 1019 0 11.2 21.7 27.4 71.1 53.9 181.2
08/05 02:40 6.2 63 4.64 -0.3 9 11 1019 0 11.4 21.9 27.8 72.1 55.2 185.8
08/05 02:30 6.7 62 4.71 -0.1 9 15 1018.9 0 11.6 21.9 27.8 72.3 55.7 187.7
08/05 02:20 6.5 62 4.65 -0.2 9 13 1018.8 0 11.4 21.8 27.7 71.9 55.1 185.5
08/05 02:10 7.1 61 4.76 0.1 11 13 1018.8 0 11.6 21.8 27.9 72.5 56.0 188.9
08/05 02:00 7 62 4.81 0.2 11 17 1018.8 0 11.8 21.9 28.1 73.1 56.7 191.4
08/05 01:50 6.6 63 4.76 0.1 9 11 1019 0 11.7 22.0 28.1 72.9 56.4 190.1
08/05 01:40 6.8 63 4.82 0.3 11 11 1019 0 11.8 22.0 28.2 73.4 57.0 192.3
08/05 01:30 6.8 62 4.74 0 9 15 1019.2 0 11.6 21.9 27.9 72.6 56.0 188.8
08/05 01:20 7.7 60 4.87 0.4 7 9 1019.3 0 11.9 21.9 28.1 73.1 57.0 192.4
08/05 01:10 7.4 61 4.85 0.4 9 11 1019.3 0 11.8 21.9 28.1 73.1 57.0 192.2
08/05 01:00 7.9 61 5.01 0.9 9 15 1019.3 0 12.2 22.0 28.6 74.3 58.6 198.0
08/05 00:50 8 61 5.05 1 7 9 1019.4 0 12.2 22.1 28.7 74.6 59.0 199.5
08/05 00:40 8.1 62 5.16 1.3 7 9 1019.3 0 12.5 22.2 29.1 75.6 60.3 204.1
08/05 00:30 8.1 65 5.41 1.9 6 9 1019.4 0 13.0 22.6 30.0 78.2 63.5 215.1
08/05 00:20 8.1 65 5.41 1.9 7 9 1019.3 0 13.0 22.6 30.0 78.2 63.4 215.1
08/05 00:10 8.1 65 5.41 1.9 7 9 1019.3 0 13.0 22.6 30.0 78.2 63.4 215.1
08/05 00:00 8.1 72 5.99 3.4 6 9 1019.3 0 14.2 23.5 32.3 84.2 70.9 241.2
07/05 23:50 7.8 71 5.8 2.9 6 7 1019.4 0 13.8 23.3 31.6 82.5 68.7 233.5
07/05 23:40 8.1 66 5.49 2.1 7 9 1019.5 0 13.2 22.7 30.3 79.0 64.5 218.7
07/05 23:30 8.6 64 5.5 2.2 11 17 1019.5 0 13.2 22.6 30.2 78.6 64.2 217.8
07/05 23:20 8.8 64 5.57 2.4 13 17 1019.5 0 13.3 22.7 30.4 79.1 64.9 220.3
07/05 23:10 8.9 66 5.78 2.9 9 13 1019.6 0 13.8 23.0 31.1 81.2 67.5 229.4
07/05 23:00 9.3 66 5.93 3.3 9 15 1019.5 0 14.1 23.1 31.6 82.3 69.0 234.9
07/05 22:50 9.8 63 5.85 3.1 9 11 1019.5 0 13.9 22.9 31.1 81.0 67.6 229.9
07/05 22:40 10.2 63 6 3.5 11 15 1019.5 0 14.2 23.0 31.5 82.1 69.1 235.4
07/05 22:30 10.2 66 6.28 4.1 9 17 1019.5 0 14.8 23.4 32.6 85.0 72.7 247.8
07/05 22:20 10.3 66 6.32 4.2 6 6 1019.4 0 14.9 23.5 32.7 85.3 73.1 249.3
07/05 22:10 11.2 59 5.98 3.5 9 13 1019.3 0 14.1 22.7 31.0 80.8 68.0 231.5
07/05 22:00 11.9 59 6.25 4.2 17 24 1019.4 0 14.7 22.9 31.8 82.9 70.7 241.3
07/05 21:50 12.1 59 6.33 4.3 19 26 1019.4 0 14.8 23.0 32.0 83.5 71.6 244.1
07/05 21:40 12.4 59 6.45 4.6 22 28 1019.2 0 15.1 23.1 32.3 84.3 72.8 248.4
07/05 21:30 12.4 61 6.67 5.1 19 30 1019.3 0 15.5 23.5 33.1 86.6 75.5 258.1
07/05 21:20 12.4 61 6.67 5.1 15 20 1019.2 0 15.5 23.5 33.1 86.6 75.5 258.1
07/05 21:10 12.8 60 6.72 5.2 17 22 1019.1 0 15.6 23.4 33.2 86.6 75.8 259.0
07/05 21:00 12.9 59 6.65 5.1 11 22 1019.1 0 15.5 23.3 32.9 85.8 74.8 255.6
07/05 20:50 13.1 58 6.62 5 11 15 1018.9 0 15.4 23.2 32.7 85.3 74.2 253.6
07/05 20:40 13.2 57 6.55 4.9 7 9 1018.6 0 15.2 23.0 32.3 84.4 73.2 250.2
07/05 20:30 13.7 55 6.51 4.8 15 24 1018.3 0 15.1 22.8 32.0 83.5 72.3 246.8
07/05 20:20 13.6 54 6.36 4.5 11 15 1018.3 0 14.8 22.6 31.5 82.1 70.5 240.7
07/05 20:10 14.1 53 6.43 4.7 20 28 1018 0 15.0 22.6 31.5 82.3 70.9 242.1
07/05 20:00 14.1 52 6.31 4.4 15 28 1018 0 14.7 22.4 31.1 81.1 69.5 237.0

Last Refresh: 08-May-2026 12:08:00

Bureau of Meteorology